Flight Track Log - Related Links

Times and Time Zones

All times are in EDT time to prevent confusion due to time zone crossing. See the CPT7773 flight status page for this flight to view local times or setup timezone preferences in your user account.

Time Position Orientation Groundspeed Altitude Reporting Facility
EDT Latitude Longitude Course Direction KTS MPH feet Rate Location/Type
Tue 08:08:24 PM 44.4164 -108.8300 129° Southeast 137 158 10,700  Level Salt Lake Center
Tue 08:09:25 PM 44.3922 -108.7881 129° Southeast 138 159 11,500 683 Climbing Salt Lake Center
Tue 08:10:27 PM 44.3686 -108.7511 132° Southeast 135 155 12,100 244 Climbing Salt Lake Center
Tue 08:11:28 PM 44.3342 -108.6986 133° Southeast 140 161 12,000 -49 Descending Salt Lake Center
Tue 08:12:30 PM 44.3031 -108.6456 129° Southeast 156 180 12,000  Level Salt Lake Center
Tue 08:13:31 PM 44.2725 -108.5919 129° Southeast 167 192 12,000  Level Salt Lake Center
Tue 08:14:32 PM 44.2419 -108.5428 131° Southeast 170 196 12,000  Level Salt Lake Center
Tue 08:15:34 PM 44.2111 -108.4953 132° Southeast 169 194 12,000  Level Salt Lake Center
Tue 08:16:35 PM 44.1811 -108.4461 130° Southeast 167 192 12,000  Level Salt Lake Center
Tue 08:17:37 PM 44.1500 -108.3975 132° Southeast 168 193 12,000  Level Salt Lake Center
Tue 08:18:38 PM 44.1189 -108.3486 132° Southeast 169 194 12,000  Level Salt Lake Center
Tue 08:19:39 PM 44.0819 -108.2875 130° Southeast 170 196 12,000 49 Level Salt Lake Center
Tue 08:20:41 PM 44.0517 -108.2367 130° Southeast 171 197 12,100  Climbing Salt Lake Center
Tue 08:21:42 PM 44.0203 -108.1867 131° Southeast 172 198 12,000 -98 Descending Salt Lake Center
Tue 08:22:44 PM 43.9881 -108.1378 132° Southeast 172 198 11,900 -49 Descending Salt Lake Center
Tue 08:23:45 PM 43.9561 -108.0869 131° Southeast 173 199 11,900  Level Salt Lake Center
Tue 08:24:47 PM 43.9264 -108.0389 131° Southeast 171 197 11,900  Level Salt Lake Center
Tue 08:25:48 PM 43.8950 -107.9906 132° Southeast 169 194 11,900  Level Salt Lake Center
Tue 08:26:50 PM 43.8639 -107.9414 131° Southeast 169 194 11,900  Level Salt Lake Center
Tue 08:27:51 PM 43.8281 -107.8836 131° Southeast 168 193 11,900  Level Salt Lake Center
Tue 08:28:53 PM 43.7975 -107.8356 131° Southeast 167 192 11,900  Level Salt Lake Center
Tue 08:29:54 PM 43.7658 -107.7878 133° Southeast 168 193 11,900 49 Level Salt Lake Center
Tue 08:30:56 PM 43.7347 -107.7394 132° Southeast 168 193 12,000 49 Climbing Salt Lake Center
Tue 08:31:57 PM 43.7042 -107.6908 131° Southeast 168 193 12,000 -49 Level Salt Lake Center
Tue 08:32:59 PM 43.6728 -107.6408 131° Southeast 169 194 11,900 -49 Descending Salt Lake Center
Tue 08:34:00 PM 43.6411 -107.5933 133° Southeast 170 196 11,900  Level Salt Lake Center
Tue 08:35:02 PM 43.6094 -107.5453 132° Southeast 170 196 11,900  Level Salt Lake Center
Tue 08:36:03 PM 43.5722 -107.4858 131° Southeast 170 196 11,900  Level Salt Lake Center
Tue 08:37:05 PM 43.5403 -107.4367 132° Southeast 171 197 11,900  Level Salt Lake Center
Tue 08:38:06 PM 43.5089 -107.3867 131° Southeast 172 198 11,900  Level Salt Lake Center
Tue 08:39:08 PM 43.4772 -107.3408 134° Southeast 170 196 11,900 49 Level Salt Lake Center
Tue 08:40:09 PM 43.4464 -107.2939 132° Southeast 168 193 12,000 49 Climbing Salt Lake Center
Tue 08:41:11 PM 43.4164 -107.2461 131° Southeast 166 191 12,000  Level Salt Lake Center
Tue 08:42:13 PM 43.3858 -107.1989 132° Southeast 165 190 12,000  Level Salt Lake Center
Tue 08:43:14 PM 43.3492 -107.1422 132° Southeast 165 190 12,000  Level Salt Lake Center
Tue 08:44:16 PM 43.3189 -107.0944 131° Southeast 166 191 12,000  Level Salt Lake Center
Tue 08:45:17 PM 43.2869 -107.0486 134° Southeast 167 192 12,000 -49 Level Salt Lake Center
Tue 08:46:19 PM 43.2564 -106.9997 131° Southeast 168 193 11,900 -146 Descending Salt Lake Center
Tue 08:47:20 PM 43.2236 -106.9511 133° Southeast 172 198 11,700 -293 Descending Salt Lake Center
Tue 08:48:22 PM 43.1906 -106.9003 132° Southeast 173 199 11,300 -439 Descending Salt Lake Center
Tue 08:49:23 PM 43.1539 -106.8428 131° Southeast 178 205 10,800 -634 Descending Salt Lake Center
Tue 08:50:25 PM 43.1192 -106.7950 135° Southeast 182 209 10,000 -750 Descending Salt Lake Center
Tue 08:51:15 PM 43.0983 -106.7461 120° Southeast 183 211 9,400 -811 Descending Denver Center
Tue 08:52:16 PM 43.0689 -106.6803 121° Southeast 182 209 8,500 -780 Descending Denver Center
Tue 08:53:18 PM 43.0419 -106.6261 124° Southeast 181 208 7,800 -677 Descending Denver Center
Tue 08:54:20 PM 43.0142 -106.5739 126° Southeast 179 206 7,100 -581 Descending Denver Center
Tue 08:55:22 PM 42.9819 -106.5189 129° Southeast 177 204 6,600 -484 Descending Denver Center

Login

Don't have an account? Register now (free) for customized features, flight alerts, and more!